createdAt,value
2023-04-06T00:00:10.146Z,1.36
2023-04-06T00:02:37.329Z,1.19
2023-04-06T00:05:04.632Z,1.16
2023-04-06T00:07:31.322Z,1.11
2023-04-06T00:09:57.975Z,1.14
2023-04-06T00:12:24.515Z,1.16
2023-04-06T00:14:51.395Z,1.16
2023-04-06T00:17:17.932Z,1.18
2023-04-06T00:19:44.414Z,1.13
2023-04-06T00:22:11.049Z,1.24
2023-04-06T00:24:37.578Z,1.30
2023-04-06T00:27:04.439Z,1.20
2023-04-06T00:29:30.984Z,1.39
2023-04-06T00:31:57.544Z,1.45
2023-04-06T00:34:24.129Z,1.34
2023-04-06T00:36:51.064Z,1.20
2023-04-06T00:39:19.738Z,1.35
2023-04-06T00:41:51.240Z,1.31
2023-04-06T00:44:17.826Z,1.30
2023-04-06T00:46:44.459Z,1.36
2023-04-06T00:49:11.121Z,1.37
2023-04-06T00:51:37.942Z,1.23
2023-04-06T00:54:04.627Z,1.13
2023-04-06T00:56:31.200Z,1.33
2023-04-06T00:58:57.707Z,1.35
2023-04-06T01:01:25.129Z,1.39
2023-04-06T01:03:52.482Z,1.20
2023-04-06T01:06:19.027Z,1.15
2023-04-06T01:08:45.617Z,1.21
2023-04-06T01:11:12.150Z,1.18
2023-04-06T01:13:38.691Z,1.13
2023-04-06T01:16:05.823Z,1.17
2023-04-06T01:18:32.519Z,1.30
2023-04-06T01:21:00.551Z,1.29
2023-04-06T01:23:27.171Z,1.24
2023-04-06T01:25:53.725Z,1.20
2023-04-06T01:28:20.462Z,1.32
2023-04-06T01:30:47.378Z,1.30
2023-04-06T01:33:14.072Z,1.26
2023-04-06T01:35:40.806Z,1.30
2023-04-06T01:38:07.374Z,1.40
2023-04-06T01:40:33.941Z,1.39
2023-04-06T01:43:00.447Z,1.39
2023-04-06T01:45:27.068Z,1.35
2023-04-06T01:47:53.541Z,1.38
2023-04-06T01:50:20.818Z,1.35
2023-04-06T01:52:47.460Z,1.25
2023-04-06T01:55:14.059Z,1.28
2023-04-06T01:57:40.568Z,1.44
2023-04-06T02:00:07.790Z,1.23
2023-04-06T02:02:34.369Z,1.23
2023-04-06T02:05:01.052Z,1.25
2023-04-06T02:07:27.596Z,1.30
2023-04-06T02:09:56.692Z,1.37
2023-04-06T02:12:23.385Z,1.33
2023-04-06T02:14:49.902Z,1.18
2023-04-06T02:17:16.536Z,1.04
2023-04-06T02:19:43.159Z,1.22
2023-04-06T02:22:10.510Z,1.31
2023-04-06T02:24:37.508Z,1.25
2023-04-06T02:27:04.345Z,1.09
2023-04-06T02:29:30.922Z,1.02
2023-04-06T02:31:57.418Z,1.16
2023-04-06T02:34:23.922Z,1.23
2023-04-06T02:36:50.695Z,1.20
2023-04-06T02:39:18.581Z,1.26
2023-04-06T02:41:45.608Z,1.32
2023-04-06T02:44:12.204Z,1.06
2023-04-06T02:46:38.765Z,0.98
2023-04-06T02:49:05.457Z,1.16
2023-04-06T02:51:32.062Z,1.14
2023-04-06T02:53:58.555Z,1.12
2023-04-06T02:56:25.052Z,1.10
2023-04-06T02:58:51.640Z,1.23
2023-04-06T03:01:18.231Z,1.13
2023-04-06T03:03:44.886Z,0.79
2023-04-06T03:06:11.413Z,0.84
2023-04-06T03:08:37.918Z,0.84
2023-04-06T03:11:04.439Z,0.83
2023-04-06T03:13:30.986Z,0.73
2023-04-06T03:15:57.497Z,0.83
2023-04-06T03:18:25.130Z,0.83
2023-04-06T03:20:51.969Z,0.77
2023-04-06T03:23:18.456Z,0.95
2023-04-06T03:25:44.986Z,0.62
2023-04-06T03:28:11.485Z,0.61
2023-04-06T03:30:38.024Z,0.68
2023-04-06T03:33:04.778Z,0.62
2023-04-06T03:35:31.356Z,0.53
2023-04-06T03:37:58.586Z,0.42
2023-04-06T03:40:25.100Z,0.47
2023-04-06T03:42:51.714Z,0.56
2023-04-06T03:45:18.238Z,0.67
2023-04-06T03:47:44.755Z,0.73
2023-04-06T03:50:11.496Z,0.41
2023-04-06T03:52:38.080Z,0.55
2023-04-06T03:55:05.026Z,0.70
2023-04-06T03:57:31.832Z,0.42
2023-04-06T03:59:58.511Z,0.23
2023-04-06T04:02:25.204Z,0.28
2023-04-06T04:04:52.030Z,0.35
2023-04-06T04:07:18.528Z,0.42
2023-04-06T04:09:45.124Z,0.25
2023-04-06T04:12:11.820Z,0.34
2023-04-06T04:14:38.391Z,0.50
2023-04-06T04:17:05.347Z,0.52
2023-04-06T04:19:31.868Z,0.53
2023-04-06T04:21:58.480Z,0.64
2023-04-06T04:24:25.119Z,0.69
2023-04-06T04:26:51.629Z,0.59
2023-04-06T04:29:20.983Z,0.56
2023-04-06T04:31:47.535Z,0.60
2023-04-06T04:34:14.470Z,0.67
2023-04-06T04:36:42.998Z,0.68
2023-04-06T04:39:09.921Z,0.83
2023-04-06T04:41:36.622Z,0.97
2023-04-06T04:44:04.941Z,0.98
2023-04-06T04:46:31.785Z,0.92
2023-04-06T04:48:58.625Z,0.75
2023-04-06T04:51:25.819Z,0.90
2023-04-06T04:53:52.576Z,0.84
2023-04-06T04:56:19.245Z,0.94
2023-04-06T04:58:46.009Z,1.13
2023-04-06T05:01:12.774Z,0.84
2023-04-06T05:03:40.731Z,0.77
2023-04-06T05:06:07.460Z,0.84
2023-04-06T05:08:34.648Z,0.98
2023-04-06T05:11:01.299Z,1.01
2023-04-06T05:13:27.801Z,0.91
2023-04-06T05:15:54.766Z,1.13
2023-04-06T05:18:21.573Z,1.33
2023-04-06T05:20:48.458Z,1.17
2023-04-06T05:23:15.020Z,0.94
2023-04-06T05:25:41.778Z,0.92
2023-04-06T05:28:08.397Z,0.92
2023-04-06T05:30:36.524Z,0.89
2023-04-06T05:33:04.743Z,1.02
2023-04-06T05:35:31.664Z,1.32
2023-04-06T05:37:58.557Z,1.33
2023-04-06T05:40:25.128Z,1.24
2023-04-06T05:42:52.538Z,1.32
2023-04-06T05:45:19.509Z,1.41
2023-04-06T05:47:46.874Z,1.49
2023-04-06T05:50:15.574Z,1.63
2023-04-06T05:52:44.198Z,1.86
2023-04-06T05:55:12.081Z,2.08
2023-04-06T05:57:38.753Z,2.08
2023-04-06T06:00:07.793Z,2.20
2023-04-06T06:02:34.448Z,2.32
2023-04-06T06:05:01.310Z,2.44
2023-04-06T06:07:28.942Z,2.51
2023-04-06T06:09:59.189Z,2.75
2023-04-06T06:12:25.672Z,2.79
2023-04-06T06:14:52.674Z,2.96
2023-04-06T06:17:19.422Z,3.01
2023-04-06T06:19:46.036Z,3.16
2023-04-06T06:22:12.606Z,3.40
2023-04-06T06:24:39.060Z,2.78
2023-04-06T06:27:05.608Z,3.22
2023-04-06T06:29:32.165Z,3.15
2023-04-06T06:31:58.879Z,2.84
2023-04-06T06:34:25.530Z,3.00
2023-04-06T06:36:52.929Z,2.91
2023-04-06T06:39:19.544Z,3.17
2023-04-06T06:41:46.199Z,3.39
2023-04-06T06:44:13.286Z,3.01
2023-04-06T06:46:39.874Z,3.24
2023-04-06T06:49:06.704Z,3.20
2023-04-06T06:51:33.277Z,3.41
2023-04-06T06:53:59.885Z,3.52
2023-04-06T06:56:27.738Z,3.43
2023-04-06T06:58:54.512Z,3.24
2023-04-06T07:01:21.880Z,3.32
2023-04-06T07:03:48.459Z,3.25
2023-04-06T07:06:15.079Z,2.91
2023-04-06T07:08:41.677Z,3.07
2023-04-06T07:11:08.495Z,3.22
2023-04-06T07:13:35.195Z,3.38
2023-04-06T07:16:01.998Z,3.71
2023-04-06T07:18:29.643Z,3.87
2023-04-06T07:20:56.815Z,4.44
2023-04-06T07:23:23.545Z,4.12
2023-04-06T07:25:52.116Z,4.10
2023-04-06T07:28:18.974Z,4.59
2023-04-06T07:30:45.696Z,4.26
2023-04-06T07:33:12.801Z,4.43
2023-04-06T07:35:40.375Z,4.36
2023-04-06T07:38:07.035Z,3.86
2023-04-06T07:40:34.159Z,3.96
2023-04-06T07:43:00.984Z,4.15
2023-04-06T07:45:27.515Z,4.08
2023-04-06T07:47:54.053Z,3.80
2023-04-06T07:50:21.048Z,3.37
2023-04-06T07:52:47.612Z,3.51
2023-04-06T07:55:14.375Z,3.71
2023-04-06T07:57:40.957Z,3.74
2023-04-06T08:00:10.518Z,3.56
2023-04-06T08:02:37.183Z,3.46
2023-04-06T08:05:05.020Z,3.05
2023-04-06T08:07:31.588Z,3.39
2023-04-06T08:09:58.326Z,3.20
2023-04-06T08:12:24.967Z,3.28
2023-04-06T08:14:51.768Z,3.34
2023-04-06T08:17:18.517Z,3.45
2023-04-06T08:19:45.457Z,3.58
2023-04-06T08:22:12.680Z,3.41
2023-04-06T08:24:39.642Z,3.49
2023-04-06T08:27:06.563Z,3.29
2023-04-06T08:29:33.234Z,3.70
2023-04-06T08:31:59.765Z,3.68
2023-04-06T08:34:26.383Z,3.43
2023-04-06T08:36:53.378Z,3.42
2023-04-06T08:39:26.346Z,3.59
2023-04-06T08:41:53.750Z,3.65
2023-04-06T08:44:20.527Z,3.70
2023-04-06T08:46:47.506Z,3.70
2023-04-06T08:49:15.391Z,3.42
2023-04-06T08:51:43.090Z,3.64
2023-04-06T08:54:09.851Z,3.84
2023-04-06T08:56:39.272Z,3.85
2023-04-06T08:59:07.344Z,3.61
2023-04-06T09:01:42.311Z,3.73
2023-04-06T09:04:13.455Z,3.54
2023-04-06T09:06:41.761Z,3.47
2023-04-06T09:09:08.786Z,3.23
2023-04-06T09:11:51.702Z,3.22
2023-04-06T09:14:30.510Z,3.44
2023-04-06T09:16:57.095Z,2.80
2023-04-06T09:19:23.666Z,3.15
2023-04-06T09:21:50.337Z,3.36
2023-04-06T09:24:22.012Z,3.24
2023-04-06T09:26:49.026Z,3.49
2023-04-06T09:29:28.193Z,3.54
2023-04-06T09:32:06.777Z,3.42
2023-04-06T09:34:35.051Z,2.90
2023-04-06T09:37:03.713Z,3.08
2023-04-06T09:39:30.462Z,3.07
2023-04-06T09:41:57.474Z,3.26
2023-04-06T09:44:25.108Z,3.14
2023-04-06T09:47:00.515Z,2.92
2023-04-06T09:49:32.516Z,2.96
2023-04-06T09:52:05.417Z,3.07
2023-04-06T09:54:32.919Z,3.18
2023-04-06T09:57:06.748Z,3.03
2023-04-06T09:59:33.291Z,2.75
2023-04-06T10:02:00.464Z,2.66
2023-04-06T10:04:51.902Z,2.81
2023-04-06T10:07:18.583Z,2.59
2023-04-06T10:09:46.745Z,2.48
2023-04-06T10:12:13.990Z,2.68
2023-04-06T10:14:42.163Z,2.80
2023-04-06T10:17:08.910Z,2.78
2023-04-06T10:19:59.465Z,2.37
2023-04-06T10:22:33.355Z,2.68
2023-04-06T10:24:59.961Z,3.03
2023-04-06T10:27:30.763Z,3.10
2023-04-06T10:30:06.176Z,2.81
2023-04-06T10:32:42.335Z,2.47
2023-04-06T10:35:10.604Z,2.65
2023-04-06T10:37:52.250Z,2.68
2023-04-06T10:40:28.605Z,2.77
2023-04-06T10:42:56.423Z,2.67
2023-04-06T10:45:25.610Z,2.76
2023-04-06T10:47:55.574Z,2.89
2023-04-06T10:50:22.847Z,2.76
2023-04-06T10:53:00.367Z,2.68
2023-04-06T10:55:29.037Z,2.70
2023-04-06T10:57:55.853Z,2.73
2023-04-06T11:00:22.566Z,2.72
2023-04-06T11:02:49.795Z,2.46
2023-04-06T11:05:16.426Z,2.63
2023-04-06T11:07:43.028Z,2.60
2023-04-06T11:10:16.618Z,2.62
2023-04-06T11:12:44.207Z,2.72
2023-04-06T11:15:10.955Z,2.65
2023-04-06T11:17:38.372Z,2.63
2023-04-06T11:20:05.841Z,2.41
2023-04-06T11:22:32.446Z,2.64
2023-04-06T11:27:41.017Z,2.59
2023-04-06T11:30:08.408Z,2.72
2023-04-06T11:32:45.171Z,2.71
2023-04-06T11:35:21.876Z,2.49
2023-04-06T11:37:50.578Z,2.41
2023-04-06T11:40:22.421Z,2.31
2023-04-06T11:42:57.743Z,2.57
2023-04-06T11:45:24.358Z,2.54
2023-04-06T11:48:00.339Z,2.76
2023-04-06T11:50:33.520Z,2.76
2023-04-06T11:53:02.058Z,2.94
2023-04-06T11:55:29.870Z,2.72
2023-04-06T11:57:57.847Z,2.89
2023-04-06T12:00:24.947Z,2.75
2023-04-06T12:02:51.755Z,2.89
2023-04-06T12:05:18.347Z,2.87
2023-04-06T12:07:45.403Z,2.89
2023-04-06T12:10:12.115Z,2.83
2023-04-06T12:12:38.729Z,2.72
2023-04-06T12:15:06.304Z,2.85
2023-04-06T12:17:32.794Z,3.01
2023-04-06T12:20:05.342Z,2.70
2023-04-06T12:22:32.960Z,2.96
2023-04-06T12:24:59.576Z,2.77
2023-04-06T12:27:26.189Z,2.77
2023-04-06T12:29:52.845Z,2.79
2023-04-06T12:32:20.090Z,2.77
2023-04-06T12:34:46.859Z,2.95
2023-04-06T12:37:13.962Z,2.73
2023-04-06T12:39:40.619Z,3.00
2023-04-06T12:42:07.081Z,3.01
2023-04-06T12:44:33.747Z,3.15
2023-04-06T12:47:00.784Z,3.20
2023-04-06T12:49:27.447Z,3.09
2023-04-06T12:51:53.973Z,3.10
2023-04-06T12:54:21.110Z,3.17
2023-04-06T12:56:47.638Z,3.13
2023-04-06T12:59:14.248Z,3.16
2023-04-06T13:01:40.879Z,2.98
2023-04-06T13:04:07.518Z,3.09
2023-04-06T13:06:34.432Z,3.05
2023-04-06T13:09:01.151Z,3.00
2023-04-06T13:11:28.837Z,2.81
2023-04-06T13:13:55.713Z,3.05
2023-04-06T13:16:22.388Z,3.27
2023-04-06T13:18:49.186Z,3.24
2023-04-06T13:21:21.801Z,3.12
2023-04-06T13:23:48.444Z,3.14
2023-04-06T13:26:16.053Z,3.04
2023-04-06T13:28:43.179Z,3.09
2023-04-06T13:31:10.899Z,3.02
2023-04-06T13:33:37.877Z,2.91
2023-04-06T13:36:04.988Z,2.60
2023-04-06T13:38:31.568Z,2.97
2023-04-06T13:40:58.650Z,3.03
2023-04-06T13:43:27.334Z,2.93
2023-04-06T13:45:56.103Z,2.97
2023-04-06T13:48:23.015Z,2.91
2023-04-06T13:50:49.838Z,2.81
2023-04-06T13:53:16.466Z,3.00
2023-04-06T13:55:42.948Z,3.06
2023-04-06T13:58:09.780Z,2.87
2023-04-06T14:00:37.044Z,2.69
2023-04-06T14:03:05.081Z,2.88
2023-04-06T14:05:35.037Z,2.84
2023-04-06T14:08:03.460Z,2.77
2023-04-06T14:10:29.994Z,2.74
2023-04-06T14:12:57.065Z,2.89
2023-04-06T14:15:24.808Z,3.07
2023-04-06T14:17:52.323Z,3.08
2023-04-06T14:20:19.462Z,3.17
2023-04-06T14:22:46.215Z,3.07
2023-04-06T14:25:13.660Z,3.09
2023-04-06T14:27:40.542Z,2.99
2023-04-06T14:30:07.774Z,3.05
2023-04-06T14:32:34.359Z,2.76
2023-04-06T14:35:01.099Z,2.49
2023-04-06T14:37:27.921Z,2.56
2023-04-06T14:39:54.683Z,2.70
2023-04-06T14:42:21.505Z,2.63
2023-04-06T14:44:49.636Z,2.69
2023-04-06T14:47:21.526Z,2.58
2023-04-06T14:49:51.286Z,2.47
2023-04-06T14:52:17.833Z,2.49
2023-04-06T14:54:44.466Z,2.54
2023-04-06T14:57:11.049Z,2.53
2023-04-06T14:59:40.020Z,2.59
2023-04-06T15:02:07.493Z,2.72
2023-04-06T15:04:37.686Z,2.66
2023-04-06T15:07:05.019Z,2.68
2023-04-06T15:09:31.855Z,2.65
2023-04-06T15:11:58.711Z,2.50
2023-04-06T15:14:25.631Z,2.64
2023-04-06T15:16:52.309Z,2.68
2023-04-06T15:19:19.015Z,2.74
2023-04-06T15:21:45.592Z,2.72
2023-04-06T15:24:12.242Z,2.79
2023-04-06T15:26:39.119Z,2.82
2023-04-06T15:29:06.272Z,2.90
2023-04-06T15:34:21.124Z,2.95
2023-04-06T15:36:47.978Z,2.68
2023-04-06T15:39:14.678Z,2.70
2023-04-06T15:41:41.518Z,2.68
2023-04-06T15:44:08.042Z,2.82
2023-04-06T15:46:34.849Z,2.67
2023-04-06T15:49:01.519Z,2.64
2023-04-06T15:51:29.623Z,2.63
2023-04-06T15:53:57.072Z,2.63
2023-04-06T15:56:23.792Z,2.61
2023-04-06T15:58:50.549Z,2.67
2023-04-06T16:01:18.930Z,2.50
2023-04-06T16:03:46.381Z,2.45
2023-04-06T16:06:13.189Z,2.46
2023-04-06T16:08:40.560Z,2.58
2023-04-06T16:11:07.625Z,2.55
2023-04-06T16:13:34.326Z,2.51
2023-04-06T16:16:01.364Z,2.57
2023-04-06T16:18:28.226Z,2.70
2023-04-06T16:20:54.889Z,2.58
2023-04-06T16:23:23.078Z,2.37
2023-04-06T16:25:51.082Z,2.48
2023-04-06T16:28:17.893Z,2.41
2023-04-06T16:30:45.833Z,2.38
2023-04-06T16:33:13.840Z,2.26
2023-04-06T16:35:44.604Z,2.35
2023-04-06T16:38:11.634Z,2.15
2023-04-06T16:40:38.778Z,2.33
2023-04-06T16:43:05.527Z,2.38
2023-04-06T16:45:32.299Z,2.38
2023-04-06T16:47:59.208Z,2.40
2023-04-06T16:50:26.178Z,2.46
2023-04-06T16:52:52.740Z,2.54
2023-04-06T16:55:20.690Z,2.50
2023-04-06T16:57:49.221Z,2.50
2023-04-06T17:00:16.609Z,2.50
2023-04-06T17:02:47.304Z,2.46
2023-04-06T17:05:14.190Z,2.56
2023-04-06T17:07:40.854Z,2.33
2023-04-06T17:10:07.901Z,2.46
2023-04-06T17:12:34.394Z,2.37
2023-04-06T17:15:01.010Z,2.15
2023-04-06T17:17:27.705Z,2.27
2023-04-06T17:19:54.348Z,2.28
2023-04-06T17:22:21.387Z,2.28
2023-04-06T17:24:49.294Z,2.38
2023-04-06T17:27:16.262Z,2.35
2023-04-06T17:29:42.991Z,2.32
2023-04-06T17:32:11.666Z,2.31
2023-04-06T17:34:38.242Z,2.40
2023-04-06T17:37:05.110Z,2.48
2023-04-06T17:39:31.655Z,2.39
2023-04-06T17:41:59.794Z,2.35
2023-04-06T17:44:26.485Z,2.38
2023-04-06T17:46:53.155Z,2.36
2023-04-06T17:49:19.752Z,2.25
2023-04-06T17:51:46.419Z,2.29
2023-04-06T17:54:13.540Z,2.27
2023-04-06T17:56:40.596Z,2.30
2023-04-06T17:59:09.998Z,2.28
2023-04-06T18:01:37.523Z,2.29
2023-04-06T18:04:04.590Z,2.35
2023-04-06T18:06:31.781Z,2.38
2023-04-06T18:08:59.520Z,2.40
2023-04-06T18:11:27.482Z,2.41
2023-04-06T18:13:54.090Z,2.48
2023-04-06T18:16:21.669Z,2.46
2023-04-06T18:18:48.491Z,2.50
2023-04-06T18:21:15.520Z,2.44
2023-04-06T18:23:42.117Z,2.41
2023-04-06T18:26:16.731Z,2.31
2023-04-06T18:28:43.581Z,2.45
2023-04-06T18:31:10.130Z,2.30
2023-04-06T18:33:36.635Z,2.28
2023-04-06T18:36:04.258Z,2.35
2023-04-06T18:38:30.778Z,2.42
2023-04-06T18:40:57.784Z,2.44
2023-04-06T18:43:25.374Z,2.48
2023-04-06T18:45:51.885Z,2.53
2023-04-06T18:48:18.541Z,2.60
2023-04-06T18:50:57.515Z,2.69
2023-04-06T18:53:24.075Z,2.54
2023-04-06T18:55:51.007Z,2.38
2023-04-06T18:58:17.526Z,2.43
2023-04-06T19:00:44.035Z,2.42
2023-04-06T19:03:10.764Z,2.52
2023-04-06T19:05:37.395Z,2.49
2023-04-06T19:08:04.847Z,2.47
2023-04-06T19:10:31.655Z,2.61
2023-04-06T19:12:58.282Z,2.45
2023-04-06T19:15:24.881Z,2.46
2023-04-06T19:17:51.673Z,2.61
2023-04-06T19:20:18.378Z,2.65
2023-04-06T19:22:44.922Z,2.64
2023-04-06T19:25:11.967Z,2.61
2023-04-06T19:27:39.190Z,2.66
2023-04-06T19:30:06.692Z,2.57
2023-04-06T19:32:33.476Z,2.54
2023-04-06T19:35:01.498Z,2.51
2023-04-06T19:37:28.063Z,2.60
2023-04-06T19:39:54.583Z,2.64
2023-04-06T19:42:21.879Z,2.63
2023-04-06T19:44:48.889Z,2.58
2023-04-06T19:47:15.554Z,2.60
2023-04-06T19:49:42.367Z,2.74
2023-04-06T19:52:10.055Z,2.78
2023-04-06T19:54:38.229Z,2.75
2023-04-06T19:57:04.993Z,2.61
2023-04-06T19:59:31.638Z,2.65
2023-04-06T20:01:58.471Z,2.53
2023-04-06T20:04:25.409Z,2.56
2023-04-06T20:06:53.564Z,2.52
2023-04-06T20:09:21.715Z,2.54
2023-04-06T20:11:48.245Z,2.55
2023-04-06T20:14:15.752Z,2.55
2023-04-06T20:16:42.310Z,2.43
2023-04-06T20:19:09.389Z,2.35
2023-04-06T20:21:37.404Z,2.45
2023-04-06T20:24:05.772Z,2.43
2023-04-06T20:26:32.618Z,2.48
2023-04-06T20:28:59.183Z,2.41
2023-04-06T20:31:27.270Z,2.44
2023-04-06T20:33:54.351Z,2.58
2023-04-06T20:36:22.261Z,2.43
2023-04-06T20:38:48.857Z,2.56
2023-04-06T20:41:16.617Z,2.54
2023-04-06T20:43:43.329Z,2.51
2023-04-06T20:46:15.039Z,2.39
2023-04-06T20:48:41.938Z,2.45
2023-04-06T20:51:09.958Z,2.55
2023-04-06T20:53:36.670Z,2.44
2023-04-06T20:56:05.084Z,2.52
2023-04-06T20:58:31.776Z,2.51
2023-04-06T21:00:58.430Z,2.52
2023-04-06T21:03:25.985Z,2.42
2023-04-06T21:05:54.036Z,2.48
2023-04-06T21:08:20.806Z,2.46
2023-04-06T21:10:47.521Z,2.45
2023-04-06T21:13:14.200Z,2.64
2023-04-06T21:15:41.286Z,2.56
2023-04-06T21:18:08.267Z,2.64
2023-04-06T21:20:35.561Z,2.55
2023-04-06T21:23:03.376Z,2.58
2023-04-06T21:25:30.354Z,2.65
2023-04-06T21:27:57.002Z,2.50
2023-04-06T21:30:23.656Z,2.58
2023-04-06T21:32:50.462Z,2.57
2023-04-06T21:35:17.106Z,2.65
2023-04-06T21:37:43.657Z,2.67
2023-04-06T21:40:10.664Z,2.67
2023-04-06T21:42:37.175Z,2.80
2023-04-06T21:45:04.655Z,2.72
2023-04-06T21:47:31.283Z,2.79
2023-04-06T21:49:57.981Z,2.79
2023-04-06T21:52:24.603Z,2.85
2023-04-06T21:54:51.169Z,2.78
2023-04-06T21:57:18.092Z,2.91
2023-04-06T21:59:44.673Z,2.88
2023-04-06T22:02:11.357Z,2.77
2023-04-06T22:04:38.032Z,2.79
2023-04-06T22:07:04.650Z,2.86
2023-04-06T22:09:31.845Z,2.83
2023-04-06T22:11:58.622Z,2.95
2023-04-06T22:14:25.924Z,2.98
2023-04-06T22:16:52.445Z,2.95
2023-04-06T22:19:18.948Z,3.01
2023-04-06T22:21:45.729Z,3.08
2023-04-06T22:24:12.295Z,2.91
2023-04-06T22:26:38.926Z,3.04
2023-04-06T22:29:05.663Z,2.98
2023-04-06T22:31:32.356Z,3.03
2023-04-06T22:33:58.956Z,3.12
2023-04-06T22:36:27.057Z,2.99
2023-04-06T22:38:53.812Z,3.00
2023-04-06T22:41:21.042Z,2.93
2023-04-06T22:43:47.575Z,3.05
2023-04-06T22:46:14.041Z,2.93
2023-04-06T22:48:40.556Z,2.96
2023-04-06T22:51:07.058Z,3.00
2023-04-06T22:53:33.553Z,3.04
2023-04-06T22:56:00.713Z,3.04
2023-04-06T22:58:27.254Z,3.06
2023-04-06T23:00:53.889Z,3.10
2023-04-06T23:03:20.624Z,3.12
2023-04-06T23:05:47.776Z,2.95
2023-04-06T23:08:14.509Z,3.05
2023-04-06T23:10:42.084Z,3.16
2023-04-06T23:13:09.529Z,3.12
2023-04-06T23:15:36.317Z,3.25
2023-04-06T23:18:04.456Z,3.24
2023-04-06T23:20:31.096Z,3.14
2023-04-06T23:22:57.712Z,3.15
2023-04-06T23:25:24.216Z,3.20
2023-04-06T23:27:52.344Z,3.27
2023-04-06T23:30:18.888Z,3.25
2023-04-06T23:32:45.830Z,3.22
2023-04-06T23:35:12.680Z,3.17
2023-04-06T23:37:39.325Z,3.27
2023-04-06T23:40:06.727Z,3.32
2023-04-06T23:42:33.379Z,3.26
2023-04-06T23:44:59.984Z,3.32
2023-04-06T23:47:26.621Z,3.36
2023-04-06T23:49:53.280Z,3.34
2023-04-06T23:52:20.505Z,3.40
2023-04-06T23:54:47.013Z,3.33
2023-04-06T23:57:13.571Z,3.35
2023-04-06T23:59:40.383Z,3.40
